createdAt,value
2022-10-19T00:02:14.823Z,12.12
2022-10-19T00:04:41.113Z,12.10
2022-10-19T00:07:07.434Z,12.11
2022-10-19T00:09:33.782Z,12.11
2022-10-19T00:12:00.131Z,12.09
2022-10-19T00:14:26.479Z,12.05
2022-10-19T00:16:52.792Z,12.05
2022-10-19T00:19:19.172Z,12.00
2022-10-19T00:21:45.527Z,11.96
2022-10-19T00:24:11.821Z,11.91
2022-10-19T00:26:38.145Z,11.87
2022-10-19T00:29:04.565Z,11.83
2022-10-19T00:31:30.808Z,11.81
2022-10-19T00:33:57.135Z,11.80
2022-10-19T00:36:23.454Z,11.76
2022-10-19T00:38:49.796Z,11.69
2022-10-19T00:41:16.110Z,11.64
2022-10-19T00:43:42.489Z,11.58
2022-10-19T00:46:08.823Z,11.54
2022-10-19T00:48:35.144Z,11.49
2022-10-19T00:51:01.464Z,11.46
2022-10-19T00:53:27.789Z,11.45
2022-10-19T00:55:54.162Z,11.52
2022-10-19T00:58:20.498Z,11.52
2022-10-19T01:00:46.855Z,11.49
2022-10-19T01:03:13.143Z,11.45
2022-10-19T01:05:39.480Z,11.41
2022-10-19T01:08:05.823Z,11.35
2022-10-19T01:10:32.177Z,11.33
2022-10-19T01:12:58.520Z,11.26
2022-10-19T01:15:24.867Z,11.18
2022-10-19T01:17:51.211Z,11.16
2022-10-19T01:20:17.527Z,11.25
2022-10-19T01:22:43.873Z,11.24
2022-10-19T01:25:10.202Z,11.19
2022-10-19T01:27:36.778Z,11.15
2022-10-19T01:30:02.933Z,11.12
2022-10-19T01:32:29.307Z,11.05
2022-10-19T01:34:55.618Z,11.02
2022-10-19T01:37:21.937Z,10.96
2022-10-19T01:39:49.883Z,10.92
2022-10-19T01:42:14.620Z,10.88
2022-10-19T01:44:40.975Z,10.85
2022-10-19T01:47:07.339Z,10.82
2022-10-19T01:49:33.655Z,10.87
2022-10-19T01:51:59.989Z,10.88
2022-10-19T01:54:26.310Z,10.81
2022-10-19T01:56:52.705Z,10.76
2022-10-19T01:59:19.021Z,10.70
2022-10-19T02:01:45.345Z,10.68
2022-10-19T02:04:11.667Z,10.64
2022-10-19T02:06:38.007Z,10.57
2022-10-19T02:09:04.328Z,10.60
2022-10-19T02:11:30.660Z,10.67
2022-10-19T02:13:56.987Z,10.68
2022-10-19T02:16:23.312Z,10.68
2022-10-19T02:18:49.652Z,10.64
2022-10-19T02:21:15.996Z,10.59
2022-10-19T02:23:42.306Z,10.53
2022-10-19T02:26:08.670Z,10.46
2022-10-19T02:28:34.991Z,10.40
2022-10-19T02:31:01.325Z,10.36
2022-10-19T02:33:27.638Z,10.33
2022-10-19T02:35:53.984Z,10.27
2022-10-19T02:38:20.321Z,10.24
2022-10-19T02:40:46.663Z,10.19
2022-10-19T02:43:13.008Z,10.16
2022-10-19T02:45:39.346Z,10.15
2022-10-19T02:48:05.678Z,10.11
2022-10-19T02:50:32.020Z,10.12
2022-10-19T02:52:58.329Z,10.11
2022-10-19T02:55:24.670Z,10.10
2022-10-19T02:57:51.044Z,10.08
2022-10-19T03:00:17.369Z,10.07
2022-10-19T03:02:43.682Z,10.10
2022-10-19T03:05:10.045Z,10.11
2022-10-19T03:07:36.610Z,10.09
2022-10-19T03:10:02.676Z,10.06
2022-10-19T03:12:29.027Z,10.06
2022-10-19T03:14:55.355Z,10.04
2022-10-19T03:17:21.668Z,10.00
2022-10-19T03:19:48.042Z,9.97
2022-10-19T03:22:14.375Z,9.88
2022-10-19T03:24:40.732Z,9.82
2022-10-19T03:27:07.045Z,9.77
2022-10-19T03:29:33.363Z,9.72
2022-10-19T03:31:59.713Z,9.70
2022-10-19T03:34:26.036Z,9.66
2022-10-19T03:36:52.352Z,9.67
2022-10-19T03:39:18.729Z,9.63
2022-10-19T03:41:45.062Z,9.61
2022-10-19T03:44:11.397Z,9.61
2022-10-19T03:46:37.731Z,9.63
2022-10-19T03:49:04.071Z,9.65
2022-10-19T03:51:30.400Z,9.61
2022-10-19T03:53:56.718Z,9.55
2022-10-19T03:56:23.052Z,9.51
2022-10-19T03:58:49.390Z,9.47
2022-10-19T04:01:15.825Z,9.41
2022-10-19T04:03:42.081Z,9.38
2022-10-19T04:06:08.388Z,9.37
2022-10-19T04:08:34.731Z,9.35
2022-10-19T04:11:01.061Z,9.31
2022-10-19T04:13:27.384Z,9.25
2022-10-19T04:15:53.714Z,9.26
2022-10-19T04:18:20.072Z,9.22
2022-10-19T04:20:46.381Z,9.19
2022-10-19T04:23:12.772Z,9.18
2022-10-19T04:25:39.034Z,9.13
2022-10-19T04:28:05.352Z,9.16
2022-10-19T04:30:31.687Z,9.16
2022-10-19T04:32:58.044Z,9.10
2022-10-19T04:35:24.392Z,9.09
2022-10-19T04:37:50.733Z,9.07
2022-10-19T04:40:17.063Z,9.06
2022-10-19T04:42:43.405Z,9.04
2022-10-19T04:45:09.719Z,9.07
2022-10-19T04:47:36.448Z,9.09
2022-10-19T04:50:02.355Z,9.13
2022-10-19T04:52:28.731Z,9.22
2022-10-19T04:54:55.060Z,9.29
2022-10-19T04:57:21.397Z,9.40
2022-10-19T04:59:47.708Z,9.57
2022-10-19T05:02:14.028Z,9.67
2022-10-19T05:04:43.024Z,9.68
2022-10-19T05:07:06.697Z,9.69
2022-10-19T05:09:33.037Z,9.73
2022-10-19T05:11:59.353Z,9.78
2022-10-19T05:14:25.692Z,9.84
2022-10-19T05:16:52.006Z,9.96
2022-10-19T05:19:18.324Z,10.06
2022-10-19T05:21:44.650Z,10.15
2022-10-19T05:24:10.991Z,10.27
2022-10-19T05:26:37.372Z,10.43
2022-10-19T05:29:03.738Z,10.63
2022-10-19T05:31:30.055Z,10.79
2022-10-19T05:33:56.568Z,10.93
2022-10-19T05:36:22.724Z,11.06
2022-10-19T05:38:49.063Z,11.27
2022-10-19T05:41:15.498Z,11.43
2022-10-19T05:43:41.817Z,11.57
2022-10-19T05:46:08.168Z,11.71
2022-10-19T05:48:34.517Z,11.86
2022-10-19T05:51:00.937Z,11.99
2022-10-19T05:53:27.371Z,12.16
2022-10-19T05:55:53.636Z,12.32
2022-10-19T05:58:20.039Z,12.44
2022-10-19T06:00:46.381Z,12.61
2022-10-19T06:03:12.755Z,12.82
2022-10-19T06:05:39.094Z,13.04
2022-10-19T06:08:05.413Z,13.26
2022-10-19T06:10:31.756Z,13.52
2022-10-19T06:12:58.077Z,13.76
2022-10-19T06:15:24.421Z,13.91
2022-10-19T06:17:50.774Z,14.02
2022-10-19T06:20:17.102Z,14.22
2022-10-19T06:22:43.426Z,14.44
2022-10-19T06:25:09.805Z,14.63
2022-10-19T06:27:36.591Z,14.80
2022-10-19T06:30:02.441Z,14.98
2022-10-19T06:32:28.758Z,15.24
2022-10-19T06:34:56.530Z,15.46
2022-10-19T06:37:21.403Z,15.63
2022-10-19T06:39:47.789Z,15.77
2022-10-19T06:42:14.090Z,16.01
2022-10-19T06:44:40.430Z,16.29
2022-10-19T06:47:06.745Z,16.62
2022-10-19T06:49:33.089Z,16.82
2022-10-19T06:51:59.407Z,16.91
2022-10-19T06:54:25.730Z,17.06
2022-10-19T06:56:52.071Z,17.21
2022-10-19T06:59:18.445Z,17.32
2022-10-19T07:01:44.759Z,17.44
2022-10-19T07:04:11.077Z,17.62
2022-10-19T07:06:37.412Z,17.87
2022-10-19T07:09:03.793Z,18.19
2022-10-19T07:11:30.108Z,18.36
2022-10-19T07:13:56.439Z,18.53
2022-10-19T07:16:22.773Z,18.74
2022-10-19T07:18:49.116Z,19.08
2022-10-19T07:21:15.486Z,19.18
2022-10-19T07:23:41.806Z,19.17
2022-10-19T07:26:08.146Z,19.33
2022-10-19T07:28:34.467Z,19.67
2022-10-19T07:31:00.813Z,19.88
2022-10-19T07:33:27.172Z,20.07
2022-10-19T07:35:53.493Z,20.24
2022-10-19T07:38:19.841Z,20.55
2022-10-19T07:40:47.457Z,20.91
2022-10-19T07:43:12.489Z,21.14
2022-10-19T07:45:38.836Z,21.25
2022-10-19T07:48:05.175Z,21.19
2022-10-19T07:50:31.517Z,21.39
2022-10-19T07:52:57.841Z,21.45
2022-10-19T07:55:24.168Z,21.52
2022-10-19T07:57:50.523Z,21.69
2022-10-19T08:00:16.844Z,21.86
2022-10-19T08:02:57.699Z,22.11
2022-10-19T08:05:11.740Z,22.40
2022-10-19T08:07:35.897Z,22.56
2022-10-19T08:10:02.283Z,22.74
2022-10-19T08:12:28.618Z,22.77
2022-10-19T08:14:54.943Z,22.95
2022-10-19T08:17:21.338Z,23.14
2022-10-19T08:19:47.656Z,23.36
2022-10-19T08:22:13.977Z,23.59
2022-10-19T08:24:40.325Z,23.80
2022-10-19T08:27:06.644Z,23.99
2022-10-19T08:29:33.003Z,24.11
2022-10-19T08:31:59.358Z,24.30
2022-10-19T08:34:25.699Z,24.54
2022-10-19T08:36:52.016Z,24.72
2022-10-19T08:39:18.358Z,24.85
2022-10-19T08:41:44.719Z,25.08
2022-10-19T08:44:11.005Z,25.23
2022-10-19T08:46:37.353Z,25.42
2022-10-19T08:49:03.692Z,25.54
2022-10-19T08:51:30.036Z,25.61
2022-10-19T08:53:56.414Z,25.78
2022-10-19T08:56:45.680Z,26.05
2022-10-19T08:58:49.086Z,26.35
2022-10-19T09:01:15.460Z,26.59
2022-10-19T09:03:54.960Z,26.78
2022-10-19T09:06:08.200Z,26.94
2022-10-19T09:08:34.638Z,27.15
2022-10-19T09:11:00.905Z,27.41
2022-10-19T09:13:36.396Z,27.64
2022-10-19T09:15:53.560Z,27.92
2022-10-19T09:18:19.908Z,28.11
2022-10-19T09:20:46.247Z,28.32
2022-10-19T09:23:13.586Z,28.39
2022-10-19T09:25:38.917Z,28.60
2022-10-19T09:28:05.328Z,28.85
2022-10-19T09:30:31.657Z,29.02
2022-10-19T09:32:58.013Z,29.15
2022-10-19T09:35:24.343Z,29.21
2022-10-19T09:37:50.673Z,29.33
2022-10-19T09:40:17.014Z,29.47
2022-10-19T09:42:43.359Z,29.53
2022-10-19T09:45:09.699Z,29.71
2022-10-19T09:47:36.564Z,29.84
2022-10-19T09:50:02.343Z,29.87
2022-10-19T09:52:28.673Z,29.91
2022-10-19T09:54:55.039Z,30.01
2022-10-19T09:57:21.350Z,30.15
2022-10-19T09:59:47.691Z,30.22
2022-10-19T10:02:14.011Z,30.29
2022-10-19T10:04:40.329Z,30.46
2022-10-19T10:07:06.682Z,30.52
2022-10-19T10:09:32.995Z,30.59
2022-10-19T10:11:59.352Z,30.67
2022-10-19T10:14:25.720Z,30.79
2022-10-19T10:16:52.043Z,30.91
2022-10-19T10:19:18.370Z,30.98
2022-10-19T10:21:44.715Z,31.04
2022-10-19T10:24:11.063Z,31.16
2022-10-19T10:26:37.388Z,31.29
2022-10-19T10:29:03.724Z,31.36
2022-10-19T10:31:30.070Z,31.36
2022-10-19T10:33:56.411Z,31.26
2022-10-19T10:36:22.735Z,31.28
2022-10-19T10:38:49.115Z,31.37
2022-10-19T10:41:15.438Z,31.47
2022-10-19T10:43:41.830Z,31.55
2022-10-19T10:46:08.125Z,31.58
2022-10-19T10:48:34.460Z,31.59
2022-10-19T10:51:00.808Z,31.68
2022-10-19T10:53:27.115Z,31.75
2022-10-19T10:55:53.464Z,31.78
2022-10-19T10:58:19.840Z,31.80
2022-10-19T11:00:46.188Z,31.78
2022-10-19T11:03:12.532Z,31.77
2022-10-19T11:05:38.880Z,31.69
2022-10-19T11:08:05.217Z,31.66
2022-10-19T11:10:31.581Z,31.65
2022-10-19T11:12:57.894Z,31.70
2022-10-19T11:15:24.299Z,31.72
2022-10-19T11:17:50.572Z,31.76
2022-10-19T11:20:16.920Z,31.73
2022-10-19T11:22:43.252Z,31.74
2022-10-19T11:25:09.696Z,31.78
2022-10-19T11:27:36.377Z,31.86
2022-10-19T11:30:02.355Z,31.86
2022-10-19T11:32:28.693Z,31.84
2022-10-19T11:34:55.053Z,31.84
2022-10-19T11:37:21.386Z,31.77
2022-10-19T11:39:47.704Z,31.65
2022-10-19T11:42:14.053Z,31.58
2022-10-19T11:44:40.400Z,31.61
2022-10-19T11:47:06.718Z,31.66
2022-10-19T11:49:33.065Z,31.73
2022-10-19T11:51:59.393Z,31.79
2022-10-19T11:54:25.711Z,31.81
2022-10-19T11:57:03.296Z,31.70
2022-10-19T11:59:18.369Z,31.65
2022-10-19T12:01:44.807Z,31.68
2022-10-19T12:04:11.087Z,31.65
2022-10-19T12:06:37.428Z,31.48
2022-10-19T12:09:03.788Z,31.42
2022-10-19T12:11:30.075Z,31.41
2022-10-19T12:13:56.458Z,31.38
2022-10-19T12:16:22.783Z,31.39
2022-10-19T12:18:49.121Z,31.37
2022-10-19T12:21:15.449Z,31.26
2022-10-19T12:23:41.793Z,31.27
2022-10-19T12:26:08.173Z,31.28
2022-10-19T12:28:34.492Z,31.30
2022-10-19T12:31:00.797Z,31.22
2022-10-19T12:33:27.140Z,31.08
2022-10-19T12:35:53.474Z,30.93
2022-10-19T12:38:19.794Z,30.80
2022-10-19T12:40:46.133Z,30.74
2022-10-19T12:43:12.479Z,30.67
2022-10-19T12:45:38.793Z,30.63
2022-10-19T12:48:05.141Z,30.57
2022-10-19T12:50:32.921Z,30.52
2022-10-19T12:52:57.849Z,30.45
2022-10-19T12:55:24.165Z,30.33
2022-10-19T12:57:50.538Z,30.21
2022-10-19T13:00:16.875Z,30.13
2022-10-19T13:02:43.259Z,30.07
2022-10-19T13:05:09.570Z,30.00
2022-10-19T13:07:36.290Z,29.89
2022-10-19T13:10:02.256Z,29.81
2022-10-19T13:12:28.580Z,29.65
2022-10-19T13:14:54.899Z,29.45
2022-10-19T13:17:21.245Z,29.30
2022-10-19T13:19:47.585Z,29.12
2022-10-19T13:22:13.931Z,29.03
2022-10-19T13:27:06.637Z,28.79
2022-10-19T13:31:59.330Z,28.40
2022-10-19T13:34:25.650Z,28.21
2022-10-19T13:36:51.973Z,28.07
2022-10-19T13:39:18.301Z,27.91
2022-10-19T13:41:44.645Z,27.73
2022-10-19T13:44:10.982Z,27.57
2022-10-19T13:46:37.326Z,27.41
2022-10-19T13:49:03.661Z,27.23
2022-10-19T13:51:30.003Z,27.08
2022-10-19T13:53:56.331Z,26.89
2022-10-19T13:56:22.659Z,26.73
2022-10-19T13:58:49.003Z,26.59
2022-10-19T14:01:15.347Z,26.47
2022-10-19T14:03:41.726Z,26.34
2022-10-19T14:06:08.070Z,26.15
2022-10-19T14:08:34.459Z,25.96
2022-10-19T14:11:01.591Z,25.78
2022-10-19T14:13:27.065Z,25.67
2022-10-19T14:15:53.389Z,25.57
2022-10-19T14:18:19.714Z,25.50
2022-10-19T14:20:46.035Z,25.40
2022-10-19T14:23:12.380Z,25.30
2022-10-19T14:25:38.746Z,25.21
2022-10-19T14:28:05.072Z,25.08
2022-10-19T14:30:31.411Z,24.97
2022-10-19T14:33:01.143Z,24.86
2022-10-19T14:35:24.095Z,24.76
2022-10-19T14:37:50.419Z,24.67
2022-10-19T14:40:16.769Z,24.59
2022-10-19T14:42:43.087Z,24.50
2022-10-19T14:45:09.410Z,24.39
2022-10-19T14:47:35.786Z,24.33
2022-10-19T14:50:02.212Z,24.23
2022-10-19T14:54:54.813Z,24.05
2022-10-19T14:57:21.154Z,23.98
2022-10-19T14:59:47.482Z,23.89
2022-10-19T15:02:13.823Z,23.80
2022-10-19T15:04:40.143Z,23.72
2022-10-19T15:07:06.485Z,23.64
2022-10-19T15:09:37.884Z,23.57
2022-10-19T15:11:59.221Z,23.50
2022-10-19T15:14:25.570Z,23.46
2022-10-19T15:16:51.888Z,23.51
2022-10-19T15:19:18.209Z,23.49
2022-10-19T15:21:44.555Z,23.38
2022-10-19T15:24:11.044Z,23.27
2022-10-19T15:26:37.365Z,23.17
2022-10-19T15:29:03.722Z,23.12
2022-10-19T15:31:30.063Z,23.00
2022-10-19T15:33:56.409Z,23.01
2022-10-19T15:36:22.729Z,22.97
2022-10-19T15:38:49.058Z,22.87
2022-10-19T15:41:15.406Z,22.73
2022-10-19T15:43:41.741Z,22.62
2022-10-19T15:46:08.065Z,22.50
2022-10-19T15:48:34.389Z,22.41
2022-10-19T15:51:00.728Z,22.33
2022-10-19T15:53:27.106Z,22.25
2022-10-19T15:55:53.486Z,22.21
2022-10-19T15:58:19.798Z,22.16
2022-10-19T16:00:46.151Z,22.08
2022-10-19T16:03:13.449Z,22.03
2022-10-19T16:05:39.787Z,21.97
2022-10-19T16:08:08.920Z,21.93
2022-10-19T16:10:32.449Z,21.90
2022-10-19T16:13:00.955Z,21.86
2022-10-19T16:15:29.719Z,21.83
2022-10-19T16:17:56.050Z,21.75
2022-10-19T16:20:22.372Z,21.65
2022-10-19T16:22:48.738Z,21.56
2022-10-19T16:25:15.062Z,21.52
2022-10-19T16:27:41.385Z,21.48
2022-10-19T16:30:07.772Z,21.47
2022-10-19T16:32:34.135Z,21.45
2022-10-19T16:35:00.449Z,21.42
2022-10-19T16:37:26.780Z,21.36
2022-10-19T16:39:53.117Z,21.28
2022-10-19T16:42:19.440Z,21.19
2022-10-19T16:44:45.819Z,21.16
2022-10-19T16:47:12.165Z,21.09
2022-10-19T16:49:38.513Z,21.04
2022-10-19T16:52:04.832Z,20.96
2022-10-19T16:54:31.150Z,20.96
2022-10-19T16:56:57.506Z,20.91
2022-10-19T16:59:23.940Z,20.85
2022-10-19T17:01:50.283Z,20.78
2022-10-19T17:04:16.584Z,20.73
2022-10-19T17:06:42.964Z,20.71
2022-10-19T17:11:35.673Z,20.63
2022-10-19T17:14:01.996Z,20.60
2022-10-19T17:16:28.329Z,20.56
2022-10-19T17:18:54.668Z,20.47
2022-10-19T17:21:21.015Z,20.43
2022-10-19T17:23:47.330Z,20.38
2022-10-19T17:26:13.855Z,20.30
2022-10-19T17:28:40.248Z,20.23
2022-10-19T17:31:06.582Z,20.18
2022-10-19T17:33:32.931Z,20.14
2022-10-19T17:35:59.305Z,20.10
2022-10-19T17:38:25.629Z,20.04
2022-10-19T17:40:51.973Z,20.03
2022-10-19T17:43:18.292Z,20.06
2022-10-19T17:45:44.627Z,20.10
2022-10-19T17:48:10.977Z,20.03
2022-10-19T17:50:37.297Z,19.96
2022-10-19T17:53:03.624Z,19.85
2022-10-19T17:55:29.969Z,19.76
2022-10-19T17:57:56.306Z,19.69
2022-10-19T18:00:22.643Z,19.63
2022-10-19T18:02:49.057Z,19.60
2022-10-19T18:05:15.324Z,19.68
2022-10-19T18:07:41.666Z,19.66
2022-10-19T18:10:07.991Z,19.63
2022-10-19T18:12:34.324Z,19.69
2022-10-19T18:15:00.638Z,19.61
2022-10-19T18:17:27.875Z,19.50
2022-10-19T18:19:53.281Z,19.54
2022-10-19T18:22:19.608Z,19.52
2022-10-19T18:24:45.947Z,19.41
2022-10-19T18:27:12.268Z,19.31
2022-10-19T18:29:38.608Z,19.23
2022-10-19T18:34:31.346Z,19.14
2022-10-19T18:36:57.647Z,19.11
2022-10-19T18:39:23.996Z,19.06
2022-10-19T18:41:50.311Z,19.00
2022-10-19T18:44:16.640Z,18.99
2022-10-19T18:46:42.991Z,18.97
2022-10-19T18:49:09.316Z,18.93
2022-10-19T18:51:35.651Z,18.92
2022-10-19T18:54:01.999Z,18.91
2022-10-19T18:56:28.342Z,18.90
2022-10-19T18:58:54.664Z,19.07
2022-10-19T19:01:21.067Z,19.20
2022-10-19T19:03:47.379Z,19.34
2022-10-19T19:06:13.712Z,19.38
2022-10-19T19:08:40.178Z,19.24
2022-10-19T19:11:06.427Z,19.13
2022-10-19T19:13:32.781Z,19.01
2022-10-19T19:15:59.143Z,18.89
2022-10-19T19:18:25.488Z,18.84
2022-10-19T19:20:52.182Z,18.76
2022-10-19T19:23:18.560Z,18.71
2022-10-19T19:25:44.899Z,18.66
2022-10-19T19:28:11.232Z,18.58
2022-10-19T19:30:37.557Z,18.58
2022-10-19T19:33:03.877Z,18.54
2022-10-19T19:35:30.213Z,18.47
2022-10-19T19:37:56.559Z,18.44
2022-10-19T19:40:22.907Z,18.41
2022-10-19T19:42:49.244Z,18.35
2022-10-19T19:45:15.579Z,18.32
2022-10-19T19:47:41.924Z,18.27
2022-10-19T19:50:08.272Z,18.26
2022-10-19T19:52:39.420Z,18.23
2022-10-19T19:57:27.293Z,18.18
2022-10-19T19:59:53.642Z,18.16
2022-10-19T20:02:20.028Z,18.10
2022-10-19T20:04:46.355Z,18.11
2022-10-19T20:07:12.701Z,18.15
2022-10-19T20:09:39.057Z,18.15
2022-10-19T20:12:05.396Z,18.14
2022-10-19T20:14:31.746Z,18.10
2022-10-19T20:16:58.093Z,18.06
2022-10-19T20:19:24.433Z,18.02
2022-10-19T20:21:50.793Z,18.00
2022-10-19T20:24:17.134Z,17.98
2022-10-19T20:26:43.452Z,17.96
2022-10-19T20:29:09.805Z,17.96
2022-10-19T20:31:36.149Z,17.99
2022-10-19T20:34:02.462Z,17.99
2022-10-19T20:36:28.803Z,17.97
2022-10-19T20:38:55.141Z,17.92
2022-10-19T20:41:21.462Z,17.89
2022-10-19T20:43:47.797Z,17.88
2022-10-19T20:46:14.128Z,17.88
2022-10-19T20:48:40.479Z,17.88
2022-10-19T20:51:06.812Z,17.85
2022-10-19T20:53:33.172Z,17.84
2022-10-19T20:55:59.520Z,17.82
2022-10-19T20:58:25.871Z,17.80
2022-10-19T21:00:52.241Z,17.80
2022-10-19T21:03:18.582Z,17.79
2022-10-19T21:05:44.911Z,17.78
2022-10-19T21:08:11.252Z,17.77
2022-10-19T21:10:37.592Z,17.76
2022-10-19T21:13:03.923Z,17.75
2022-10-19T21:15:30.269Z,17.76
2022-10-19T21:17:56.657Z,17.77
2022-10-19T21:20:22.986Z,17.76
2022-10-19T21:22:49.335Z,17.76
2022-10-19T21:25:15.680Z,17.76
2022-10-19T21:27:42.003Z,17.78
2022-10-19T21:30:08.328Z,17.77
2022-10-19T21:32:34.687Z,17.76
2022-10-19T21:35:01.025Z,17.73
2022-10-19T21:37:27.386Z,17.73
2022-10-19T21:39:53.725Z,17.72
2022-10-19T21:42:20.088Z,17.71
2022-10-19T21:44:46.409Z,17.69
2022-10-19T21:47:12.756Z,17.67
2022-10-19T21:49:39.136Z,17.67
2022-10-19T21:52:05.470Z,17.66
2022-10-19T21:54:31.818Z,17.64
2022-10-19T21:56:58.166Z,17.62
2022-10-19T21:59:24.509Z,17.60
2022-10-19T22:01:50.885Z,17.56
2022-10-19T22:04:17.207Z,17.55
2022-10-19T22:06:43.550Z,17.51
2022-10-19T22:09:09.909Z,17.51
2022-10-19T22:11:36.209Z,17.48
2022-10-19T22:14:02.585Z,17.48
2022-10-19T22:16:28.929Z,17.47
2022-10-19T22:18:55.246Z,17.50
2022-10-19T22:21:21.613Z,17.48
2022-10-19T22:23:47.953Z,17.46
2022-10-19T22:26:14.283Z,17.47
2022-10-19T22:28:40.599Z,17.44
2022-10-19T22:31:06.927Z,17.43
2022-10-19T22:33:33.305Z,17.44
2022-10-19T22:35:59.641Z,17.49
2022-10-19T22:38:25.953Z,17.52
2022-10-19T22:40:52.291Z,17.53
2022-10-19T22:43:18.608Z,17.53
2022-10-19T22:45:44.950Z,17.51
2022-10-19T22:48:11.269Z,17.48
2022-10-19T22:50:37.592Z,17.45
2022-10-19T22:53:03.915Z,17.44
2022-10-19T22:55:30.259Z,17.43
2022-10-19T22:57:56.594Z,17.43
2022-10-19T23:00:22.942Z,17.44
2022-10-19T23:02:49.280Z,17.45
2022-10-19T23:05:15.660Z,17.43
2022-10-19T23:07:41.996Z,17.42
2022-10-19T23:10:08.316Z,17.40
2022-10-19T23:12:34.644Z,17.41
2022-10-19T23:15:01.025Z,17.38
2022-10-19T23:17:27.359Z,17.38
2022-10-19T23:19:53.702Z,17.36
2022-10-19T23:22:20.080Z,17.33
2022-10-19T23:24:46.399Z,17.32
2022-10-19T23:27:12.741Z,17.30
2022-10-19T23:29:39.116Z,17.29
2022-10-19T23:32:05.457Z,17.28
2022-10-19T23:34:31.836Z,17.26
2022-10-19T23:36:58.153Z,17.26
2022-10-19T23:39:24.519Z,17.27
2022-10-19T23:41:50.815Z,17.29
2022-10-19T23:44:17.167Z,17.29
2022-10-19T23:46:43.503Z,17.29
2022-10-19T23:49:19.030Z,17.27
2022-10-19T23:51:45.344Z,17.27
2022-10-19T23:54:11.723Z,17.27
2022-10-19T23:56:38.041Z,17.25
2022-10-19T23:59:04.379Z,17.25
